Time;durP1;ratioP1;P1;durP2;ratioP2;P2;SDS_P1;SDS_P2;PMS_P1;PMS_P2;Temp;Humidity;BMP_temperature;BMP_pressure;BME280_temperature;BME280_humidity;BME280_pressure;Samples;Min_cycle;Max_cycle;Signal;HPM_P1;HPM_P2
2023/04/22 00:01:16;;;;;;;19.95;9.27;;;9.60;99.90;;;;;;5061201;28;20082;-40
2023/04/22 00:03:43;;;;;;;14.82;9.30;;;9.60;99.90;;;;;;5063067;28;20090;-42
2023/04/22 00:06:09;;;;;;;14.93;9.75;;;9.60;99.90;;;;;;5058704;28;20147;-40
2023/04/22 00:08:35;;;;;;;17.45;9.45;;;9.50;99.90;;;;;;5068451;28;20496;-46
2023/04/22 00:11:01;;;;;;;13.10;8.32;;;9.60;99.90;;;;;;5074601;28;20016;-39
2023/04/22 00:13:26;;;;;;;15.55;8.85;;;9.50;99.90;;;;;;5068472;28;20016;-37
2023/04/22 00:15:52;;;;;;;17.08;9.70;;;9.50;99.90;;;;;;5064945;28;20056;-34
2023/04/22 00:18:18;;;;;;;13.77;8.48;;;9.50;99.90;;;;;;5054725;28;20028;-36
2023/04/22 00:20:44;;;;;;;17.98;8.52;;;9.40;99.90;;;;;;5054532;28;20036;-36
2023/04/22 00:23:11;;;;;;;16.63;8.30;;;9.40;99.90;;;;;;5054898;28;20017;-36
2023/04/22 00:25:37;;;;;;;14.63;8.43;;;9.40;99.90;;;;;;5055423;28;20032;-38
2023/04/22 00:28:03;;;;;;;16.13;8.52;;;9.30;99.90;;;;;;5070960;28;20055;-37
2023/04/22 00:30:28;;;;;;;16.05;8.80;;;9.30;99.90;;;;;;5073520;28;20102;-37
2023/04/22 00:32:54;;;;;;;14.77;8.32;;;9.20;99.90;;;;;;5074423;28;20024;-37
2023/04/22 00:35:20;;;;;;;12.70;7.90;;;9.20;99.90;;;;;;5073264;28;20054;-34
2023/04/22 00:37:46;;;;;;;14.75;8.68;;;9.20;99.90;;;;;;5072226;28;20104;-34
2023/04/22 00:40:11;;;;;;;17.70;9.18;;;9.10;99.90;;;;;;5062819;28;20017;-37
2023/04/22 00:42:38;;;;;;;14.93;9.23;;;9.10;99.90;;;;;;5074354;28;20033;-36
2023/04/22 00:45:08;;;;;;;14.32;8.40;;;9.00;99.90;;;;;;5071812;28;20030;-37
2023/04/22 00:47:35;;;;;;;13.32;7.57;;;9.00;99.90;;;;;;5074389;28;20495;-36
2023/04/22 00:50:01;;;;;;;11.82;6.88;;;8.90;99.90;;;;;;5074233;28;20096;-37
2023/04/22 00:52:27;;;;;;;16.88;7.85;;;8.90;99.90;;;;;;5074567;28;20537;-38
2023/04/22 00:54:53;;;;;;;14.85;8.43;;;8.90;99.90;;;;;;5064009;28;20101;-38
2023/04/22 00:57:19;;;;;;;15.68;9.00;;;8.80;99.90;;;;;;5054176;28;20052;-35
2023/04/22 00:59:46;;;;;;;20.88;9.65;;;8.80;99.90;;;;;;5068898;28;20083;-36
2023/04/22 01:02:12;;;;;;;15.82;8.50;;;8.80;99.90;;;;;;5073988;28;20485;-33
2023/04/22 01:04:38;;;;;;;14.75;8.05;;;8.70;99.90;;;;;;5072040;28;20481;-36
2023/04/22 01:07:03;;;;;;;15.65;10.02;;;8.70;99.90;;;;;;5072252;28;20218;-33
2023/04/22 01:09:29;;;;;;;18.55;9.18;;;8.70;99.90;;;;;;5069650;28;20020;-35
2023/04/22 01:11:56;;;;;;;15.10;9.50;;;8.70;99.90;;;;;;5070240;28;20017;-32
2023/04/22 01:14:23;;;;;;;15.05;8.43;;;8.60;99.90;;;;;;5066132;28;20024;-38
2023/04/22 01:16:50;;;;;;;15.68;8.95;;;8.60;99.90;;;;;;5072024;28;20024;-36
2023/04/22 01:19:15;;;;;;;16.48;8.88;;;8.60;99.90;;;;;;5064837;28;20036;-35
2023/04/22 01:21:44;;;;;;;15.98;9.20;;;8.60;99.90;;;;;;5063759;28;20542;-38
2023/04/22 01:24:09;;;;;;;19.95;9.40;;;8.50;99.90;;;;;;5067013;28;20028;-35
2023/04/22 01:26:36;;;;;;;13.05;8.02;;;8.50;99.90;;;;;;5068631;28;20400;-33
2023/04/22 01:29:03;;;;;;;16.08;8.82;;;8.50;99.90;;;;;;5066510;28;20059;-37
2023/04/22 01:31:29;;;;;;;17.80;9.40;;;8.50;99.90;;;;;;5069894;28;20055;-40
2023/04/22 01:33:55;;;;;;;14.98;8.70;;;8.50;99.90;;;;;;5060400;28;20033;-39
2023/04/22 01:36:21;;;;;;;16.08;8.65;;;8.50;99.90;;;;;;5062385;28;20019;-34
2023/04/22 01:38:47;;;;;;;13.73;8.43;;;8.50;99.90;;;;;;5058424;28;20029;-39
2023/04/22 01:41:13;;;;;;;19.80;9.60;;;8.40;99.90;;;;;;5072314;28;20048;-40
2023/04/22 01:43:39;;;;;;;16.50;9.00;;;8.40;99.90;;;;;;5069338;28;20017;-41
2023/04/22 01:46:06;;;;;;;19.27;9.90;;;8.40;99.90;;;;;;5067726;28;20021;-41
2023/04/22 01:48:31;;;;;;;14.00;8.63;;;8.30;99.90;;;;;;5065997;28;20086;-40
2023/04/22 01:50:57;;;;;;;19.48;9.45;;;8.30;99.90;;;;;;5070571;28;20461;-38
2023/04/22 01:53:23;;;;;;;12.60;8.07;;;8.30;99.90;;;;;;5063012;28;20074;-44
2023/04/22 01:55:49;;;;;;;17.48;10.15;;;8.20;99.90;;;;;;5057905;28;20028;-41
2023/04/22 01:58:14;;;;;;;15.57;9.25;;;8.30;99.90;;;;;;5069646;28;20435;-40
2023/04/22 02:00:40;;;;;;;17.33;9.00;;;8.30;99.90;;;;;;5066243;28;20059;-35
2023/04/22 02:03:06;;;;;;;15.38;9.13;;;8.20;99.90;;;;;;5067496;28;20032;-36
2023/04/22 02:05:31;;;;;;;17.63;9.35;;;8.20;99.90;;;;;;5069860;28;20488;-39
2023/04/22 02:07:57;;;;;;;15.07;8.80;;;8.20;99.90;;;;;;5062287;28;20040;-34
2023/04/22 02:10:22;;;;;;;18.75;10.18;;;8.20;99.90;;;;;;5072251;28;20107;-39
2023/04/22 02:12:48;;;;;;;23.90;9.32;;;8.20;99.90;;;;;;5071646;28;20445;-40
2023/04/22 02:15:14;;;;;;;19.55;10.20;;;8.20;99.90;;;;;;5071840;28;20477;-37
2023/04/22 02:17:41;;;;;;;18.35;9.93;;;8.20;99.90;;;;;;5069853;28;20029;-36
2023/04/22 02:20:10;;;;;;;16.17;9.60;;;8.10;99.90;;;;;;5071203;28;20062;-35
2023/04/22 02:22:36;;;;;;;16.80;10.25;;;8.10;99.90;;;;;;5070743;28;20412;-41
2023/04/22 02:25:02;;;;;;;17.20;9.60;;;8.00;99.90;;;;;;5072160;28;20024;-37
2023/04/22 02:27:27;;;;;;;19.17;9.25;;;8.00;99.90;;;;;;5057609;28;20031;-39
2023/04/22 02:29:53;;;;;;;18.15;10.15;;;8.00;99.90;;;;;;5068451;28;20025;-35
2023/04/22 02:32:19;;;;;;;19.40;10.05;;;7.90;99.90;;;;;;5072727;28;20385;-39
2023/04/22 02:34:46;;;;;;;19.95;10.50;;;7.90;99.90;;;;;;5054987;28;20512;-37
2023/04/22 02:37:11;;;;;;;20.80;10.98;;;7.90;99.90;;;;;;5072661;28;20082;-35
2023/04/22 02:39:37;;;;;;;21.25;9.50;;;7.90;99.90;;;;;;5072232;28;20024;-38
2023/04/22 02:42:02;;;;;;;20.02;11.35;;;7.90;99.90;;;;;;5076653;28;20534;-36
2023/04/22 02:44:28;;;;;;;17.98;10.30;;;7.90;99.90;;;;;;5074562;28;20074;-37
2023/04/22 02:46:54;;;;;;;21.65;10.65;;;7.90;99.90;;;;;;5071514;28;20021;-40
2023/04/22 02:49:20;;;;;;;20.08;11.43;;;7.90;99.90;;;;;;5076092;28;20033;-36
2023/04/22 02:51:45;;;;;;;19.38;10.77;;;7.90;99.90;;;;;;5076585;28;20025;-39
2023/04/22 02:54:11;;;;;;;23.35;10.65;;;7.90;99.90;;;;;;5074215;28;20029;-41
2023/04/22 02:56:36;;;;;;;20.27;10.90;;;7.90;99.90;;;;;;5076795;28;20078;-42
2023/04/22 02:59:02;;;;;;;25.35;10.30;;;8.00;99.90;;;;;;5072819;28;20021;-34
2023/04/22 03:01:28;;;;;;;16.60;10.00;;;7.90;99.90;;;;;;5075006;28;20033;-38
2023/04/22 03:03:55;;;;;;;19.30;10.68;;;7.90;99.90;;;;;;5075951;28;20039;-38
2023/04/22 03:06:21;;;;;;;20.83;11.10;;;7.90;99.90;;;;;;5076361;28;20036;-35
2023/04/22 03:08:46;;;;;;;19.30;10.48;;;7.90;99.90;;;;;;5075032;28;20032;-36
2023/04/22 03:11:12;;;;;;;19.63;10.07;;;7.90;99.90;;;;;;5074996;28;20020;-38
2023/04/22 03:13:38;;;;;;;19.67;10.35;;;7.90;99.90;;;;;;5072526;28;20036;-40
2023/04/22 03:16:04;;;;;;;18.42;10.27;;;7.90;99.90;;;;;;5075966;28;20055;-36
2023/04/22 03:18:30;;;;;;;21.27;10.75;;;7.90;99.90;;;;;;5063736;28;20502;-39
2023/04/22 03:20:55;;;;;;;18.58;11.40;;;7.90;99.90;;;;;;5064217;28;20028;-36
2023/04/22 03:23:21;;;;;;;21.23;10.55;;;7.90;99.90;;;;;;5066823;28;20029;-37
2023/04/22 03:25:47;;;;;;;19.70;11.82;;;7.90;99.90;;;;;;5055949;28;20025;-38
2023/04/22 03:28:12;;;;;;;21.70;10.88;;;7.90;99.90;;;;;;5063416;28;20103;-36
2023/04/22 03:30:38;;;;;;;18.65;10.30;;;7.90;99.90;;;;;;5074687;28;20530;-33
2023/04/22 03:33:04;;;;;;;16.23;8.95;;;7.90;99.90;;;;;;5074255;28;20401;-38
2023/04/22 03:35:29;;;;;;;21.00;11.63;;;7.90;99.90;;;;;;5076071;28;20025;-40
2023/04/22 03:37:55;;;;;;;23.20;12.52;;;8.00;99.90;;;;;;5068903;28;20528;-39
2023/04/22 03:40:21;;;;;;;21.90;10.77;;;8.00;99.90;;;;;;5069830;28;20036;-42
2023/04/22 03:42:47;;;;;;;23.23;11.40;;;8.10;99.90;;;;;;5074506;28;20100;-43
2023/04/22 03:45:12;;;;;;;20.63;11.45;;;8.10;99.90;;;;;;5074373;28;20033;-41
2023/04/22 03:47:38;;;;;;;22.67;11.18;;;8.10;99.90;;;;;;5069936;28;20519;-41
2023/04/22 03:50:04;;;;;;;19.63;11.30;;;8.20;99.90;;;;;;5061964;28;20063;-41
2023/04/22 03:52:30;;;;;;;18.55;10.05;;;8.20;99.90;;;;;;5071212;28;20523;-39
2023/04/22 03:54:55;;;;;;;19.80;10.77;;;8.20;99.90;;;;;;5055415;28;20029;-40
2023/04/22 03:57:21;;;;;;;20.50;9.32;;;8.20;99.90;;;;;;5056419;28;20032;-40
2023/04/22 03:59:47;;;;;;;19.65;10.80;;;8.20;99.90;;;;;;5073751;28;20472;-42
2023/04/22 04:02:12;;;;;;;19.52;10.18;;;8.20;99.90;;;;;;5074174;28;20400;-35
2023/04/22 04:04:38;;;;;;;17.58;10.23;;;8.30;99.90;;;;;;5072714;28;20058;-41
2023/04/22 04:07:03;;;;;;;19.13;10.43;;;8.20;99.90;;;;;;5075019;28;20032;-41
2023/04/22 04:09:29;;;;;;;17.42;10.20;;;8.20;99.90;;;;;;5071632;28;20024;-40
2023/04/22 04:11:55;;;;;;;20.17;10.07;;;8.20;99.90;;;;;;5074481;28;20057;-37
2023/04/22 04:14:21;;;;;;;20.08;11.20;;;8.30;99.90;;;;;;5071512;28;20025;-41
2023/04/22 04:16:47;;;;;;;20.50;11.48;;;8.30;99.90;;;;;;5065730;28;20103;-40
2023/04/22 04:19:12;;;;;;;16.70;9.75;;;8.30;99.90;;;;;;5054759;28;20029;-41
2023/04/22 04:21:38;;;;;;;21.40;11.15;;;8.40;99.90;;;;;;5054993;28;20079;-43
2023/04/22 04:24:05;;;;;;;19.25;10.77;;;8.40;99.90;;;;;;5071698;28;20404;-40
2023/04/22 04:26:32;;;;;;;21.95;11.15;;;8.40;99.90;;;;;;5073874;28;20070;-41
2023/04/22 04:29:00;;;;;;;20.60;11.13;;;8.40;99.90;;;;;;5071613;28;20512;-39
2023/04/22 04:31:27;;;;;;;23.25;10.70;;;8.40;99.90;;;;;;5073500;28;20017;-37
2023/04/22 04:33:52;;;;;;;18.67;11.07;;;8.50;99.90;;;;;;5057893;28;20444;-35
2023/04/22 04:36:18;;;;;;;19.42;10.93;;;8.50;99.90;;;;;;5072103;28;20020;-37
2023/04/22 04:38:45;;;;;;;19.30;10.45;;;8.50;99.90;;;;;;5068409;28;20073;-38
2023/04/22 04:41:11;;;;;;;23.25;12.07;;;8.50;99.90;;;;;;5073065;28;20062;-36
2023/04/22 04:43:37;;;;;;;25.23;11.65;;;8.50;99.90;;;;;;5071906;28;20050;-38
2023/04/22 04:46:03;;;;;;;19.15;11.25;;;8.60;99.90;;;;;;5063164;28;20473;-36
2023/04/22 04:48:29;;;;;;;19.75;11.15;;;8.60;99.90;;;;;;5065062;28;20043;-36
2023/04/22 04:50:55;;;;;;;22.48;11.93;;;8.60;99.90;;;;;;5065832;28;20021;-36
2023/04/22 04:53:21;;;;;;;19.80;11.70;;;8.60;99.90;;;;;;5062158;28;20024;-40
2023/04/22 04:55:47;;;;;;;22.27;12.38;;;8.60;99.90;;;;;;5065365;28;20028;-35
2023/04/22 04:58:13;;;;;;;22.15;12.52;;;8.70;99.90;;;;;;5061622;28;20047;-38
2023/04/22 05:00:38;;;;;;;22.90;12.40;;;8.70;99.90;;;;;;5067454;28;20029;-37
2023/04/22 05:03:04;;;;;;;26.02;12.75;;;8.70;99.90;;;;;;5055184;28;20027;-39
2023/04/22 05:05:30;;;;;;;20.38;11.55;;;8.70;99.90;;;;;;5086309;28;20508;-35
2023/04/22 05:07:55;;;;;;;20.40;10.80;;;8.70;99.90;;;;;;5053710;28;20017;-39
2023/04/22 05:10:21;;;;;;;25.15;12.90;;;8.80;99.90;;;;;;5057149;28;20028;-38
2023/04/22 05:12:46;;;;;;;28.38;13.50;;;8.70;99.90;;;;;;5071588;28;20024;-38
2023/04/22 05:15:13;;;;;;;21.13;12.18;;;8.80;99.90;;;;;;5070765;28;20536;-36
2023/04/22 05:17:39;;;;;;;20.48;11.98;;;8.80;99.90;;;;;;5074142;28;20388;-36
2023/04/22 05:20:05;;;;;;;23.13;12.52;;;8.80;99.90;;;;;;5068097;28;20032;-36
2023/04/22 05:22:31;;;;;;;20.15;12.25;;;8.80;99.90;;;;;;5054020;28;20040;-34
2023/04/22 05:24:56;;;;;;;22.00;11.15;;;8.90;99.90;;;;;;5056327;28;20078;-33
2023/04/22 05:27:22;;;;;;;18.40;11.50;;;8.90;99.90;;;;;;5057044;28;20357;-36
2023/04/22 05:29:47;;;;;;;21.05;11.98;;;8.90;99.90;;;;;;5065707;28;20017;-40
2023/04/22 05:32:13;;;;;;;21.50;11.75;;;9.00;99.90;;;;;;5069311;28;20033;-38
2023/04/22 05:34:39;;;;;;;21.05;13.00;;;9.00;99.90;;;;;;5073371;28;20037;-38
2023/04/22 05:37:05;;;;;;;17.35;9.80;;;8.90;99.90;;;;;;5071233;28;20017;-38
2023/04/22 05:39:31;;;;;;;16.73;10.68;;;9.00;99.90;;;;;;5061616;28;20066;-37
2023/04/22 05:41:56;;;;;;;18.65;9.93;;;9.00;99.90;;;;;;5068639;28;20013;-38
2023/04/22 05:44:22;;;;;;;22.70;11.63;;;9.00;99.90;;;;;;5073307;28;20032;-35
2023/04/22 05:46:47;;;;;;;21.60;12.05;;;9.10;99.90;;;;;;5071770;28;20496;-37
2023/04/22 05:49:13;;;;;;;19.30;11.13;;;9.10;99.90;;;;;;5071846;28;20039;-41
2023/04/22 05:51:39;;;;;;;23.15;11.50;;;9.10;99.90;;;;;;5071924;28;20455;-36
2023/04/22 05:54:04;;;;;;;19.55;11.18;;;9.10;99.90;;;;;;5065211;28;20092;-36
2023/04/22 05:56:30;;;;;;;20.70;11.63;;;9.20;99.90;;;;;;5053192;28;20017;-35
2023/04/22 05:58:56;;;;;;;22.45;12.27;;;9.20;99.90;;;;;;5070942;28;20033;-39
2023/04/22 06:01:23;;;;;;;18.15;11.52;;;9.30;99.90;;;;;;5070915;28;20090;-40
2023/04/22 06:03:49;;;;;;;22.05;12.00;;;9.30;99.90;;;;;;5062465;28;20120;-35
2023/04/22 06:06:15;;;;;;;20.27;10.98;;;9.40;99.90;;;;;;5071706;28;20060;-34
2023/04/22 06:08:41;;;;;;;19.30;10.75;;;9.50;99.90;;;;;;5068836;28;20040;-36
2023/04/22 06:11:06;;;;;;;21.00;11.80;;;9.50;99.90;;;;;;5066197;28;20516;-40
2023/04/22 06:13:32;;;;;;;21.38;11.82;;;9.60;99.90;;;;;;5063590;28;20028;-36
2023/04/22 06:15:58;;;;;;;30.88;13.18;;;9.60;99.90;;;;;;5052450;28;20048;-37
2023/04/22 06:18:23;;;;;;;21.55;12.00;;;9.60;99.90;;;;;;5059821;28;20060;-35
2023/04/22 06:20:50;;;;;;;21.08;12.48;;;9.70;99.90;;;;;;5069297;28;20024;-37
2023/04/22 06:23:16;;;;;;;22.30;13.05;;;9.70;99.90;;;;;;5072508;28;20040;-36
2023/04/22 06:25:42;;;;;;;24.80;12.38;;;9.70;99.90;;;;;;5072727;28;20028;-36
2023/04/22 06:28:08;;;;;;;23.15;13.90;;;9.90;99.90;;;;;;5072675;28;20020;-39
2023/04/22 06:30:33;;;;;;;19.83;11.88;;;10.00;99.90;;;;;;5071134;28;20029;-43
2023/04/22 06:32:59;;;;;;;21.50;13.02;;;10.00;99.90;;;;;;5072562;28;20020;-40
2023/04/22 06:35:25;;;;;;;24.10;13.25;;;10.20;99.90;;;;;;5072743;28;20047;-41
2023/04/22 06:37:51;;;;;;;23.55;12.45;;;10.20;99.90;;;;;;5066868;28;20017;-39
2023/04/22 06:40:17;;;;;;;19.85;11.88;;;10.30;99.90;;;;;;5066778;28;20033;-42
2023/04/22 06:42:42;;;;;;;21.40;12.88;;;10.40;99.90;;;;;;5072677;28;20067;-42
2023/04/22 06:45:11;;;;;;;22.08;13.20;;;10.50;99.90;;;;;;5070964;28;20064;-42
2023/04/22 06:47:38;;;;;;;20.58;12.55;;;10.60;99.90;;;;;;5071297;28;20497;-40
2023/04/22 06:50:07;;;;;;;18.95;11.43;;;10.70;99.90;;;;;;5060514;28;20033;-43
2023/04/22 06:52:34;;;;;;;21.50;12.20;;;10.80;99.90;;;;;;5052820;28;20500;-39
2023/04/22 06:55:01;;;;;;;19.02;11.18;;;10.90;99.90;;;;;;5053593;28;20063;-40
2023/04/22 06:57:27;;;;;;;18.08;12.07;;;11.00;99.90;;;;;;5058723;28;20064;-41
2023/04/22 06:59:53;;;;;;;17.45;10.38;;;11.00;99.90;;;;;;5059304;28;20059;-41
2023/04/22 07:02:18;;;;;;;21.42;11.27;;;11.10;99.90;;;;;;5057727;28;20028;-39
2023/04/22 07:04:44;;;;;;;18.02;11.50;;;11.20;99.90;;;;;;5061038;28;20066;-42
2023/04/22 07:07:10;;;;;;;20.75;11.27;;;11.30;99.90;;;;;;5065498;28;20424;-43
2023/04/22 07:09:35;;;;;;;19.77;11.27;;;11.40;99.90;;;;;;5057104;28;20028;-42
2023/04/22 07:12:01;;;;;;;20.05;11.77;;;11.70;99.90;;;;;;5069109;28;20488;-44
2023/04/22 07:14:27;;;;;;;16.70;11.23;;;11.80;99.90;;;;;;5066925;28;20108;-44
2023/04/22 07:16:53;;;;;;;17.45;10.48;;;12.00;99.90;;;;;;5064613;28;20032;-46
2023/04/22 07:19:19;;;;;;;21.17;11.00;;;12.30;99.90;;;;;;5057132;28;20048;-42
2023/04/22 07:21:45;;;;;;;14.32;10.20;;;12.50;99.90;;;;;;5071084;28;20029;-41
2023/04/22 07:24:12;;;;;;;14.70;9.88;;;12.50;99.90;;;;;;5060285;28;20036;-41
2023/04/22 07:26:40;;;;;;;15.25;10.27;;;12.50;99.90;;;;;;5055206;28;20055;-41
2023/04/22 07:29:06;;;;;;;16.80;9.23;;;12.50;99.90;;;;;;5073677;28;20488;-45
2023/04/22 07:31:34;;;;;;;16.00;9.60;;;12.50;99.90;;;;;;5061450;28;20029;-41
2023/04/22 07:33:59;;;;;;;16.05;9.65;;;12.60;99.90;;;;;;5071014;28;20519;-40
2023/04/22 07:36:25;;;;;;;13.23;8.50;;;12.90;99.90;;;;;;5071953;28;20028;-39
2023/04/22 07:38:51;;;;;;;15.05;9.27;;;13.10;99.90;;;;;;5073470;28;20139;-41
2023/04/22 07:41:16;;;;;;;12.95;8.18;;;13.20;99.90;;;;;;5069789;28;20055;-40
2023/04/22 07:43:42;;;;;;;16.88;8.75;;;13.30;99.90;;;;;;5069814;28;20025;-42
2023/04/22 07:46:08;;;;;;;15.90;9.38;;;13.50;99.90;;;;;;5061097;28;20082;-40
2023/04/22 07:48:34;;;;;;;14.25;8.68;;;13.70;99.90;;;;;;5072331;28;20043;-40
2023/04/22 07:51:00;;;;;;;13.85;8.73;;;13.80;99.90;;;;;;5073194;28;20126;-43
2023/04/22 07:53:25;;;;;;;13.50;8.63;;;13.90;99.90;;;;;;5074545;28;20021;-42
2023/04/22 07:55:51;;;;;;;14.43;8.32;;;13.90;99.90;;;;;;5077764;28;20473;-41
2023/04/22 07:58:17;;;;;;;13.77;8.95;;;13.90;99.90;;;;;;5070986;28;20595;-34
2023/04/22 08:00:42;;;;;;;12.25;8.18;;;13.90;99.90;;;;;;5071419;28;20129;-37
2023/04/22 08:03:08;;;;;;;15.43;8.38;;;13.90;99.90;;;;;;5067473;28;20036;-36
2023/04/22 08:05:33;;;;;;;11.68;8.40;;;14.00;99.90;;;;;;5062450;28;20040;-38
2023/04/22 08:07:59;;;;;;;17.35;9.32;;;14.20;99.90;;;;;;5071350;28;20384;-37
2023/04/22 08:10:25;;;;;;;11.32;7.53;;;14.40;99.90;;;;;;5070601;28;20029;-38
2023/04/22 08:12:50;;;;;;;14.02;8.20;;;14.50;99.90;;;;;;5067644;28;20040;-39
2023/04/22 08:15:16;;;;;;;11.85;7.43;;;14.60;99.90;;;;;;5069235;28;20028;-35
2023/04/22 08:17:42;;;;;;;11.00;7.38;;;14.60;99.90;;;;;;5064966;28;20113;-37
2023/04/22 08:20:08;;;;;;;9.20;6.50;;;14.60;99.90;;;;;;5067914;28;20108;-36
2023/04/22 08:22:34;;;;;;;13.73;8.35;;;14.80;99.90;;;;;;5058218;28;20024;-33
2023/04/22 08:25:00;;;;;;;10.15;6.65;;;14.90;99.90;;;;;;5066446;28;20785;-39
2023/04/22 08:27:25;;;;;;;9.63;6.57;;;15.10;99.90;;;;;;5064566;28;20025;-38
2023/04/22 08:29:51;;;;;;;8.27;6.22;;;15.10;99.90;;;;;;5071745;28;20538;-40
2023/04/22 08:32:18;;;;;;;20.80;7.85;;;15.20;99.90;;;;;;5058479;28;20016;-38
2023/04/22 08:34:44;;;;;;;7.60;5.30;;;15.30;99.90;;;;;;5059151;28;20099;-36
2023/04/22 08:37:10;;;;;;;6.43;5.72;;;15.30;99.90;;;;;;5074021;28;20432;-39
2023/04/22 08:39:36;;;;;;;14.93;7.15;;;15.40;99.90;;;;;;5074544;28;20070;-38
2023/04/22 08:42:02;;;;;;;10.02;6.25;;;15.50;99.90;;;;;;5073482;28;20034;-39
2023/04/22 08:44:29;;;;;;;8.68;6.35;;;15.80;99.90;;;;;;5073342;28;20024;-34
2023/04/22 08:46:55;;;;;;;9.38;5.82;;;16.00;99.90;;;;;;5072572;28;20028;-39
2023/04/22 08:49:22;;;;;;;8.80;5.97;;;16.00;99.90;;;;;;5074616;28;20524;-34
2023/04/22 08:51:49;;;;;;;8.43;6.25;;;16.10;99.90;;;;;;5074637;28;20520;-35
2023/04/22 08:54:15;;;;;;;8.45;6.47;;;16.20;99.90;;;;;;5072627;28;20067;-36
2023/04/22 08:56:43;;;;;;;8.15;5.78;;;16.40;99.90;;;;;;5074330;28;20021;-35
2023/04/22 08:59:10;;;;;;;8.32;6.18;;;16.50;99.90;;;;;;5074269;28;20039;-38
2023/04/22 09:01:38;;;;;;;9.35;6.40;;;16.60;99.90;;;;;;5062071;28;20061;-34
2023/04/22 09:04:05;;;;;;;7.38;6.13;;;16.70;99.90;;;;;;5054065;28;20028;-37
2023/04/22 09:06:32;;;;;;;8.55;6.18;;;17.00;99.90;;;;;;5054024;28;20025;-39
2023/04/22 09:09:00;;;;;;;8.02;6.45;;;17.40;99.90;;;;;;5054023;28;20520;-38
2023/04/22 09:11:26;;;;;;;9.77;5.75;;;17.60;99.90;;;;;;5065737;28;20024;-36
2023/04/22 09:13:53;;;;;;;6.43;5.07;;;17.80;99.90;;;;;;5073972;28;20440;-35
2023/04/22 09:16:19;;;;;;;8.40;4.78;;;17.90;99.90;;;;;;5072529;28;20025;-34
2023/04/22 09:18:45;;;;;;;7.10;5.45;;;18.10;99.90;;;;;;5074015;28;20033;-40
2023/04/22 09:21:11;;;;;;;5.72;5.13;;;18.30;99.90;;;;;;5062558;28;20056;-35
2023/04/22 09:23:50;;;;;;;7.45;5.63;;;18.50;99.90;;;;;;5053752;28;20040;-36
2023/04/22 09:26:24;;;;;;;7.50;4.68;;;18.80;99.90;;;;;;5053668;28;20024;-36
2023/04/22 09:28:57;;;;;;;6.60;4.95;;;19.10;99.90;;;;;;5068410;28;20033;-34
2023/04/22 09:31:23;;;;;;;6.38;5.32;;;19.10;99.90;;;;;;5072471;28;20392;-38
2023/04/22 09:33:57;;;;;;;10.02;5.10;;;19.30;99.90;;;;;;5073344;28;20051;-37
2023/04/22 09:36:27;;;;;;;6.97;4.82;;;19.40;99.90;;;;;;5073785;28;20025;-36
2023/04/22 09:38:54;;;;;;;8.23;5.38;;;19.70;99.90;;;;;;5071889;28;20480;-36
2023/04/22 09:41:46;;;;;;;;;;;19.70;99.90;;;;;;5073860;28;20484;-39
2023/04/22 09:44:16;;;;;;;7.22;4.78;;;19.70;99.90;;;;;;5052273;28;19909;-37
2023/04/22 09:46:43;;;;;;;8.57;5.18;;;20.00;99.90;;;;;;5061901;28;20402;-36
2023/04/22 09:49:09;;;;;;;7.28;5.53;;;20.10;99.90;;;;;;5073065;28;20174;-35
2023/04/22 09:51:39;;;;;;;7.13;5.20;;;20.60;99.90;;;;;;5071908;28;20393;-38
2023/04/22 09:54:09;;;;;;;7.07;5.40;;;21.00;99.90;;;;;;5073489;28;20468;-36
2023/04/22 09:56:51;;;;;;;8.27;5.50;;;21.10;99.90;;;;;;5064755;28;20025;-37
2023/04/22 09:59:17;;;;;;;7.57;4.88;;;21.20;99.90;;;;;;5052923;28;20020;-40
2023/04/22 10:01:43;;;;;;;6.43;4.90;;;21.50;99.90;;;;;;5059303;28;20028;-39
2023/04/22 10:04:10;;;;;;;8.85;4.80;;;21.80;99.90;;;;;;5073299;28;20391;-40
2023/04/22 10:06:36;;;;;;;6.35;5.03;;;21.70;99.90;;;;;;5071212;28;20025;-39
2023/04/22 10:09:03;;;;;;;5.57;4.97;;;21.60;99.90;;;;;;5060352;28;20508;-36
2023/04/22 10:11:30;;;;;;;;;;;21.60;99.90;;;;;;5053557;28;20509;-35
2023/04/22 10:13:57;;;;;;;7.95;4.85;;;21.60;99.90;;;;;;5053070;28;20277;-37
2023/04/22 10:16:24;;;;;;;6.45;5.20;;;21.40;99.90;;;;;;5057142;28;20507;-44
2023/04/22 10:18:53;;;;;;;8.73;4.93;;;21.20;99.90;;;;;;5072630;28;20028;-42
2023/04/22 10:21:20;;;;;;;6.47;5.07;;;21.30;99.90;;;;;;5071305;28;20115;-42
2023/04/22 10:23:47;;;;;;;6.05;4.72;;;21.40;99.90;;;;;;5073122;28;20594;-46
2023/04/22 10:26:32;;;;;;;7.80;4.70;;;21.40;99.90;;;;;;5068693;28;20025;-42
2023/04/22 10:28:58;;;;;;;9.20;4.90;;;21.20;99.90;;;;;;5052615;28;20064;-43
2023/04/22 10:31:24;;;;;;;6.07;4.57;;;21.00;99.90;;;;;;5055004;28;20385;-44
2023/04/22 10:34:07;;;;;;;8.15;5.28;;;20.90;99.90;;;;;;5072473;28;20075;-45
2023/04/22 10:36:32;;;;;;;11.48;5.40;;;21.00;99.90;;;;;;5072658;28;20051;-41
2023/04/22 10:38:58;;;;;;;6.40;4.93;;;21.10;99.90;;;;;;5072413;28;20029;-41
2023/04/22 10:41:34;;;;;;;6.00;4.88;;;21.20;99.90;;;;;;5063505;28;20378;-39
2023/04/22 10:44:04;;;;;;;5.05;4.50;;;21.10;99.90;;;;;;5052708;28;20397;-42
2023/04/22 10:46:33;;;;;;;6.82;5.15;;;20.80;99.90;;;;;;5052566;28;20541;-42
2023/04/22 10:49:09;;;;;;;5.88;5.03;;;20.70;99.90;;;;;;5072499;28;20032;-43
2023/04/22 10:51:42;;;;;;;7.18;4.97;;;20.40;99.90;;;;;;5071966;28;20457;-43
2023/04/22 10:54:35;;;;;;;9.30;5.53;;;20.00;99.90;;;;;;5072630;28;20016;-41
2023/04/22 10:57:11;;;;;;;6.65;4.88;;;19.60;99.90;;;;;;5054192;28;20532;-40
2023/04/22 10:59:50;;;;;;;7.22;5.43;;;19.20;99.90;;;;;;5072530;28;20476;-40
2023/04/22 11:02:17;;;;;;;11.65;6.25;;;18.90;99.90;;;;;;5058850;28;20033;-41
2023/04/22 11:04:44;;;;;;;10.55;5.88;;;18.60;99.90;;;;;;5056415;28;20025;-41
2023/04/22 11:07:19;;;;;;;8.18;6.00;;;18.40;99.90;;;;;;5056664;28;20037;-42
2023/04/22 11:09:50;;;;;;;7.72;6.32;;;18.30;99.90;;;;;;5056608;28;20481;-41
2023/04/22 11:12:34;;;;;;;10.50;6.78;;;18.10;99.90;;;;;;5056273;28;20482;-44
2023/04/22 11:15:07;;;;;;;8.93;6.53;;;17.90;99.90;;;;;;5056211;28;20500;-42
2023/04/22 11:17:34;;;;;;;8.30;6.07;;;17.80;99.90;;;;;;5072742;28;20505;-42
2023/04/22 11:20:00;;;;;;;10.15;6.50;;;17.80;99.90;;;;;;5076204;28;20078;-44
2023/04/22 11:22:26;;;;;;;10.50;7.03;;;17.70;99.90;;;;;;5075145;28;20037;-43
2023/04/22 11:25:03;;;;;;;9.48;6.55;;;17.70;99.90;;;;;;5076195;28;20469;-42
2023/04/22 11:27:29;;;;;;;10.10;6.70;;;17.70;99.90;;;;;;5075865;28;20024;-45
2023/04/22 11:30:08;;;;;;;8.95;7.03;;;17.70;99.90;;;;;;5075960;28;20028;-42
2023/04/22 11:32:40;;;;;;;10.38;6.45;;;17.60;99.90;;;;;;5073842;28;20024;-43
2023/04/22 11:35:07;;;;;;;9.52;6.65;;;17.40;99.90;;;;;;5056725;28;20607;-42
2023/04/22 11:37:48;;;;;;;8.57;5.95;;;17.30;99.90;;;;;;5056043;28;20427;-44
2023/04/22 11:40:20;;;;;;;7.55;5.90;;;17.20;99.90;;;;;;5070417;28;20031;-42
2023/04/22 11:42:47;;;;;;;9.45;6.93;;;17.20;99.90;;;;;;5055663;28;20071;-44
2023/04/22 11:45:13;;;;;;;10.70;7.28;;;17.00;99.90;;;;;;5055576;28;20064;-43
2023/04/22 11:47:40;;;;;;;10.18;6.80;;;16.90;99.90;;;;;;5072521;28;20075;-45
2023/04/22 11:50:10;;;;;;;12.10;7.28;;;16.80;99.90;;;;;;5075786;28;20472;-41
2023/04/22 11:52:46;;;;;;;9.63;7.18;;;16.80;99.90;;;;;;5074326;28;20153;-41
2023/04/22 11:55:16;;;;;;;11.57;7.38;;;16.60;99.90;;;;;;5075321;28;20030;-42
2023/04/22 11:57:43;;;;;;;12.18;7.78;;;16.40;99.90;;;;;;5075667;28;20473;-41
2023/04/22 12:00:13;;;;;;;8.88;7.00;;;16.30;99.90;;;;;;5075666;28;20477;-44
2023/04/22 12:02:40;;;;;;;11.75;7.90;;;16.10;99.90;;;;;;5056159;28;20060;-42
2023/04/22 12:05:12;;;;;;;14.80;7.83;;;15.70;99.90;;;;;;5055516;28;20017;-42
2023/04/22 12:07:38;;;;;;;15.15;8.15;;;15.40;99.90;;;;;;5072132;28;20609;-45
2023/04/22 12:10:06;;;;;;;11.52;7.65;;;15.30;99.90;;;;;;5075187;28;20125;-42
2023/04/22 12:12:34;;;;;;;;;;;15.10;99.90;;;;;;5072612;28;20569;-39
2023/04/22 12:15:07;;;;;;;11.75;7.13;;;15.00;99.90;;;;;;5073365;28;19916;-38
2023/04/22 12:17:33;;;;;;;12.30;7.95;;;14.80;99.90;;;;;;5072010;28;20485;-39
2023/04/22 12:19:58;;;;;;;12.25;7.72;;;14.70;99.90;;;;;;5075037;28;20099;-40
2023/04/22 12:22:26;;;;;;;13.90;8.95;;;14.60;99.90;;;;;;5074987;28;20469;-33
2023/04/22 12:24:52;;;;;;;21.27;9.80;;;14.50;99.90;;;;;;5074865;28;20039;-36
2023/04/22 12:27:17;;;;;;;20.40;9.68;;;14.30;99.90;;;;;;5070275;28;20680;-39
2023/04/22 12:29:56;;;;;;;16.95;9.57;;;14.20;99.90;;;;;;5055102;28;20029;-39
2023/04/22 12:32:24;;;;;;;16.00;9.75;;;14.10;99.90;;;;;;5065784;28;20028;-39
2023/04/22 12:34:50;;;;;;;17.20;9.68;;;14.00;99.90;;;;;;5074490;28;20040;-36
2023/04/22 12:37:16;;;;;;;17.88;10.70;;;13.90;99.90;;;;;;5071907;28;20020;-37
2023/04/22 12:39:42;;;;;;;19.60;10.52;;;13.70;99.90;;;;;;5054561;28;20033;-37